PVV8472 LGAV-HTDA
Flight info
| Callsign | PVV8472 |
|---|---|
| Flight time | N/A |
| Altitude | 31000 |
| Route | VELOP UB1 PLH UL604 SALUN L604 MEVDA P557 NUBAR P309 AVONO A727 ANTAX UA727 NV UL445 GEREN XUKER1C |
| Aircraft | B742/H-SDE3FGHIM1M2RWXY/LB1 |
Departure
| Time | 2026-05-06 08:48 |
|---|---|
| Airport | Athens Eleftherios Venizelos International Airport (LGAV) |
Arrival
| Time | N/A |
|---|---|
| Airport | Julius Nyerere International Airport (HTDA) |
| Time | Latitude | Longitude | Altitude | Speed | Heading |
|---|---|---|---|---|---|
| 2026-05-06 08:08 | 37.92461 | 23.93851 | 272 ft | 0 kts | 307° |
| 2026-05-06 08:32 | 37.92456 | 23.93860 | 273 ft | 2 kts | 307° |
| 2026-05-06 08:33 | 37.92446 | 23.93876 | 273 ft | 2 kts | 307° |
| 2026-05-06 08:33 | 37.92437 | 23.93892 | 273 ft | 2 kts | 307° |
| 2026-05-06 08:33 | 37.92428 | 23.93907 | 273 ft | 2 kts | 307° |
| 2026-05-06 08:33 | 37.92419 | 23.93924 | 273 ft | 2 kts | 310° |
| 2026-05-06 08:34 | 37.92408 | 23.93934 | 273 ft | 2 kts | 339° |
| 2026-05-06 08:34 | 37.92380 | 23.93933 | 273 ft | 2 kts | 30° |
| 2026-05-06 08:34 | 37.92368 | 23.93922 | 273 ft | 2 kts | 39° |
| 2026-05-06 08:35 | 37.92358 | 23.93912 | 273 ft | 0 kts | 38° |
| 2026-05-06 08:35 | 37.92357 | 23.93911 | 273 ft | 0 kts | 38° |
| 2026-05-06 08:35 | 37.92358 | 23.93911 | 272 ft | 0 kts | 38° |
| 2026-05-06 08:43 | 37.92360 | 23.93913 | 272 ft | 1 kts | 38° |
| 2026-05-06 08:43 | 37.92376 | 23.93929 | 272 ft | 4 kts | 37° |
| 2026-05-06 08:43 | 37.92410 | 23.93961 | 273 ft | 7 kts | 36° |
| 2026-05-06 08:43 | 37.92453 | 23.94001 | 275 ft | 7 kts | 36° |
| 2026-05-06 08:44 | 37.92479 | 23.94056 | 276 ft | 7 kts | 92° |
| 2026-05-06 08:44 | 37.92450 | 23.94125 | 276 ft | 9 kts | 128° |
| 2026-05-06 08:44 | 37.92413 | 23.94199 | 275 ft | 9 kts | 104° |
| 2026-05-06 08:44 | 37.92412 | 23.94279 | 275 ft | 8 kts | 90° |
| 2026-05-06 08:45 | 37.92394 | 23.94339 | 275 ft | 6 kts | 119° |
| 2026-05-06 08:45 | 37.92406 | 23.94378 | 274 ft | 5 kts | 33° |
| 2026-05-06 08:45 | 37.92421 | 23.94391 | 275 ft | 0 kts | 36° |
| 2026-05-06 08:46 | 37.92460 | 23.94427 | 275 ft | 0 kts | 36° |
| 2026-05-06 08:47 | 37.92462 | 23.94429 | 275 ft | 4 kts | 36° |
| 2026-05-06 08:47 | 37.92561 | 23.94523 | 276 ft | 37 kts | 37° |
| 2026-05-06 08:47 | 37.92924 | 23.94874 | 278 ft | 93 kts | 36° |
| 2026-05-06 08:48 | 37.93595 | 23.95507 | 269 ft | 147 kts | 37° |
| 2026-05-06 08:48 | 37.94546 | 23.96414 | 294 ft | 192 kts | 37° |
| 2026-05-06 08:48 | 37.95651 | 23.97495 | 628 ft | 204 kts | 38° |
| 2026-05-06 08:48 | 37.96761 | 23.98615 | 1172 ft | 206 kts | 37° |
| 2026-05-06 08:49 | 37.97893 | 23.99691 | 1805 ft | 206 kts | 35° |
| 2026-05-06 08:49 | 37.99049 | 24.00775 | 2343 ft | 209 kts | 36° |
| 2026-05-06 08:49 | 38.00212 | 24.01884 | 2784 ft | 213 kts | 36° |
| 2026-05-06 08:49 | 38.01420 | 24.03047 | 2945 ft | 221 kts | 35° |
| 2026-05-06 08:50 | 38.02658 | 24.04208 | 3194 ft | 225 kts | 36° |
| 2026-05-06 08:50 | 38.03916 | 24.05438 | 3462 ft | 229 kts | 37° |
| 2026-05-06 08:50 | 38.05164 | 24.06640 | 3736 ft | 226 kts | 36° |
| 2026-05-06 08:50 | 38.06419 | 24.07858 | 3964 ft | 226 kts | 36° |
| 2026-05-06 08:51 | 38.07767 | 24.08846 | 4078 ft | 227 kts | 9° |
| 2026-05-06 08:51 | 38.09303 | 24.08696 | 4218 ft | 223 kts | 333° |
| 2026-05-06 08:51 | 38.10433 | 24.07400 | 4346 ft | 222 kts | 295° |
| 2026-05-06 08:51 | 38.10817 | 24.05527 | 4505 ft | 223 kts | 276° |
| 2026-05-06 08:52 | 38.10965 | 24.03565 | 4638 ft | 228 kts | 275° |
| 2026-05-06 08:52 | 38.11092 | 24.01534 | 4739 ft | 235 kts | 275° |
| 2026-05-06 08:52 | 38.11221 | 23.99428 | 4841 ft | 243 kts | 275° |
| 2026-05-06 08:52 | 38.11355 | 23.97233 | 4934 ft | 251 kts | 275° |
| 2026-05-06 08:53 | 38.11490 | 23.95007 | 5140 ft | 255 kts | 275° |
| 2026-05-06 08:53 | 38.11625 | 23.92761 | 5372 ft | 258 kts | 275° |
| 2026-05-06 08:53 | 38.11761 | 23.90488 | 5601 ft | 262 kts | 275° |
| 2026-05-06 08:53 | 38.11597 | 23.88186 | 5818 ft | 265 kts | 248° |
| 2026-05-06 08:54 | 38.10683 | 23.86128 | 6047 ft | 273 kts | 236° |
| 2026-05-06 08:54 | 38.09576 | 23.84134 | 6364 ft | 279 kts | 235° |
| 2026-05-06 08:54 | 38.08425 | 23.82120 | 6698 ft | 285 kts | 235° |
| 2026-05-06 08:54 | 38.07088 | 23.80252 | 7011 ft | 291 kts | 214° |
| 2026-05-06 08:55 | 38.05251 | 23.79183 | 7314 ft | 298 kts | 199° |
| 2026-05-06 08:55 | 38.03271 | 23.78309 | 7604 ft | 305 kts | 201° |
| 2026-05-06 08:55 | 38.01284 | 23.77312 | 7889 ft | 313 kts | 203° |
| 2026-05-06 08:55 | 37.99248 | 23.76198 | 8181 ft | 321 kts | 204° |
| 2026-05-06 08:56 | 37.97198 | 23.75039 | 8470 ft | 328 kts | 205° |
| 2026-05-06 08:56 | 37.95106 | 23.73845 | 8760 ft | 335 kts | 205° |
| 2026-05-06 08:56 | 37.92966 | 23.72622 | 9050 ft | 341 kts | 205° |
| 2026-05-06 08:56 | 37.90803 | 23.71389 | 9337 ft | 348 kts | 205° |
| 2026-05-06 08:57 | 37.88569 | 23.70115 | 9628 ft | 354 kts | 205° |
| 2026-05-06 08:57 | 37.86212 | 23.69146 | 9912 ft | 361 kts | 189° |
| 2026-05-06 08:57 | 37.83712 | 23.69029 | 10203 ft | 366 kts | 174° |
| 2026-05-06 08:57 | 37.81166 | 23.69393 | 10495 ft | 373 kts | 172° |
| 2026-05-06 08:58 | 37.78596 | 23.69869 | 10783 ft | 380 kts | 171° |
| 2026-05-06 08:58 | 37.75969 | 23.70405 | 11073 ft | 386 kts | 171° |
| 2026-05-06 08:58 | 37.73307 | 23.70962 | 11361 ft | 392 kts | 171° |
| 2026-05-06 08:58 | 37.70604 | 23.71529 | 11650 ft | 398 kts | 171° |
| 2026-05-06 08:59 | 37.67862 | 23.72101 | 11938 ft | 404 kts | 171° |
| 2026-05-06 08:59 | 37.65053 | 23.72686 | 12251 ft | 408 kts | 171° |
| 2026-05-06 08:59 | 37.62267 | 23.73264 | 12641 ft | 410 kts | 171° |
| 2026-05-06 08:59 | 37.59449 | 23.73849 | 13001 ft | 413 kts | 171° |
| 2026-05-06 09:00 | 37.56630 | 23.74433 | 13359 ft | 416 kts | 171° |
| 2026-05-06 09:00 | 37.53780 | 23.75023 | 13714 ft | 418 kts | 171° |
| 2026-05-06 09:00 | 37.50916 | 23.75615 | 14061 ft | 421 kts | 172° |
| 2026-05-06 09:00 | 37.48009 | 23.76217 | 14405 ft | 424 kts | 172° |
| 2026-05-06 09:01 | 37.45116 | 23.76814 | 14734 ft | 426 kts | 172° |
| 2026-05-06 09:01 | 37.42173 | 23.77422 | 15061 ft | 429 kts | 172° |
| 2026-05-06 09:01 | 37.39239 | 23.78027 | 15379 ft | 431 kts | 172° |
| 2026-05-06 09:01 | 37.36293 | 23.78635 | 15662 ft | 434 kts | 172° |
| 2026-05-06 09:02 | 37.33302 | 23.79251 | 15983 ft | 437 kts | 172° |
| 2026-05-06 09:02 | 37.30328 | 23.79863 | 16277 ft | 439 kts | 172° |
| 2026-05-06 09:02 | 37.27285 | 23.80489 | 16584 ft | 441 kts | 173° |
| 2026-05-06 09:02 | 37.24295 | 23.81104 | 16898 ft | 443 kts | 173° |
| 2026-05-06 09:03 | 37.21223 | 23.81734 | 17220 ft | 445 kts | 173° |
| 2026-05-06 09:03 | 37.18206 | 23.82353 | 17540 ft | 447 kts | 173° |
| 2026-05-06 09:03 | 37.15147 | 23.82981 | 17854 ft | 449 kts | 173° |
| 2026-05-06 09:03 | 37.12060 | 23.83613 | 18180 ft | 451 kts | 173° |
| 2026-05-06 09:04 | 37.08962 | 23.84247 | 18469 ft | 455 kts | 173° |
| 2026-05-06 09:04 | 37.05833 | 23.84887 | 18817 ft | 456 kts | 173° |
| 2026-05-06 09:04 | 37.02690 | 23.85529 | 19118 ft | 459 kts | 173° |
| 2026-05-06 09:04 | 36.99564 | 23.86167 | 19460 ft | 461 kts | 173° |
| 2026-05-06 09:05 | 36.96395 | 23.86814 | 19785 ft | 464 kts | 173° |
| 2026-05-06 09:05 | 36.93236 | 23.87458 | 20106 ft | 467 kts | 174° |
| 2026-05-06 09:05 | 36.90023 | 23.88112 | 20457 ft | 469 kts | 174° |
| 2026-05-06 09:05 | 36.86800 | 23.88768 | 20769 ft | 471 kts | 174° |
| 2026-05-06 09:06 | 36.83557 | 23.89428 | 21129 ft | 474 kts | 174° |
| 2026-05-06 09:06 | 36.80329 | 23.90084 | 21441 ft | 476 kts | 174° |
| 2026-05-06 09:06 | 36.77054 | 23.90749 | 21756 ft | 479 kts | 174° |
| 2026-05-06 09:06 | 36.73774 | 23.91414 | 22112 ft | 481 kts | 174° |
| 2026-05-06 09:07 | 36.70458 | 23.92086 | 22439 ft | 484 kts | 174° |
| 2026-05-06 09:07 | 36.67135 | 23.92759 | 22762 ft | 487 kts | 174° |
| 2026-05-06 09:07 | 36.63801 | 23.93433 | 23091 ft | 490 kts | 174° |
| 2026-05-06 09:07 | 36.60459 | 23.94108 | 23421 ft | 492 kts | 174° |
| 2026-05-06 09:08 | 36.57051 | 23.94794 | 23774 ft | 494 kts | 174° |
| 2026-05-06 09:08 | 36.53667 | 23.95474 | 24080 ft | 497 kts | 174° |
| 2026-05-06 09:08 | 36.50276 | 23.96156 | 24411 ft | 499 kts | 174° |
| 2026-05-06 09:08 | 36.46847 | 23.96845 | 24727 ft | 501 kts | 174° |
| 2026-05-06 09:09 | 36.43425 | 23.97534 | 25000 ft | 504 kts | 174° |
| 2026-05-06 09:09 | 36.39972 | 23.98229 | 25307 ft | 506 kts | 174° |
| 2026-05-06 09:09 | 36.36496 | 23.98927 | 25587 ft | 508 kts | 174° |
| 2026-05-06 09:09 | 36.33001 | 23.99629 | 25839 ft | 511 kts | 174° |
| 2026-05-06 09:10 | 36.29516 | 24.00328 | 26133 ft | 513 kts | 174° |
| 2026-05-06 09:10 | 36.25995 | 24.01033 | 26412 ft | 515 kts | 174° |
| 2026-05-06 09:10 | 36.22483 | 24.01736 | 26684 ft | 517 kts | 174° |
| 2026-05-06 09:10 | 36.18950 | 24.02442 | 26952 ft | 519 kts | 174° |
| 2026-05-06 09:11 | 36.15379 | 24.03155 | 27192 ft | 521 kts | 174° |
| 2026-05-06 09:11 | 36.11818 | 24.03866 | 27455 ft | 523 kts | 174° |
| 2026-05-06 09:11 | 36.08197 | 24.04589 | 27699 ft | 524 kts | 174° |
| 2026-05-06 09:11 | 36.04612 | 24.05304 | 27930 ft | 526 kts | 174° |
| 2026-05-06 09:12 | 36.01032 | 24.06017 | 28150 ft | 528 kts | 174° |
| 2026-05-06 09:12 | 35.97409 | 24.06738 | 28358 ft | 529 kts | 174° |
| 2026-05-06 09:12 | 35.93766 | 24.07463 | 28545 ft | 531 kts | 174° |
| 2026-05-06 09:12 | 35.90124 | 24.08186 | 28708 ft | 534 kts | 174° |
| 2026-05-06 09:13 | 35.86489 | 24.08907 | 28824 ft | 536 kts | 174° |
| 2026-05-06 09:13 | 35.82813 | 24.09636 | 28942 ft | 539 kts | 174° |
| 2026-05-06 09:13 | 35.79128 | 24.10366 | 29059 ft | 541 kts | 174° |
| 2026-05-06 09:13 | 35.75395 | 24.11105 | 29178 ft | 543 kts | 174° |
| 2026-05-06 09:14 | 35.71681 | 24.11839 | 29295 ft | 545 kts | 174° |
| 2026-05-06 09:14 | 35.67960 | 24.12574 | 29412 ft | 547 kts | 174° |
| 2026-05-06 09:14 | 35.64196 | 24.13317 | 29530 ft | 549 kts | 174° |
| 2026-05-06 09:14 | 35.60436 | 24.14061 | 29648 ft | 550 kts | 174° |
| 2026-05-06 09:15 | 35.56674 | 24.14806 | 29765 ft | 552 kts | 174° |
| 2026-05-06 09:15 | 35.52911 | 24.15548 | 29883 ft | 553 kts | 174° |
| 2026-05-06 09:15 | 35.49106 | 24.16297 | 30001 ft | 554 kts | 174° |
| 2026-05-06 09:15 | 35.45291 | 24.17047 | 30119 ft | 555 kts | 174° |
| 2026-05-06 09:16 | 35.41531 | 24.17785 | 30395 ft | 552 kts | 174° |
| 2026-05-06 09:16 | 35.37765 | 24.18525 | 30867 ft | 545 kts | 174° |
| 2026-05-06 09:16 | 35.34076 | 24.19250 | 31299 ft | 538 kts | 174° |
| 2026-05-06 09:16 | 35.30396 | 24.19969 | 31192 ft | 543 kts | 174° |
| 2026-05-06 09:17 | 35.26664 | 24.20696 | 31124 ft | 537 kts | 174° |
| 2026-05-06 09:17 | 35.19395 | 24.22116 | 31109 ft | 527 kts | 174° |
| 2026-05-06 09:18 | 35.12176 | 24.23519 | 31112 ft | 531 kts | 174° |
| 2026-05-06 09:18 | 35.04871 | 24.24936 | 31112 ft | 536 kts | 174° |
| 2026-05-06 09:19 | 34.97495 | 24.26366 | 31112 ft | 540 kts | 174° |
| 2026-05-06 09:19 | 34.90100 | 24.27801 | 31108 ft | 535 kts | 174° |
| 2026-05-06 09:20 | 34.82897 | 24.29198 | 31111 ft | 519 kts | 173° |
| 2026-05-06 09:20 | 34.75843 | 24.30560 | 31127 ft | 515 kts | 173° |
| 2026-05-06 09:21 | 34.68788 | 24.31915 | 31140 ft | 519 kts | 173° |
| 2026-05-06 09:21 | 34.61675 | 24.33281 | 31140 ft | 520 kts | 173° |
| 2026-05-06 09:22 | 34.54561 | 24.34648 | 31139 ft | 518 kts | 173° |
| 2026-05-06 09:22 | 34.47481 | 24.36005 | 31140 ft | 517 kts | 173° |
| 2026-05-06 09:23 | 34.40411 | 24.37358 | 31140 ft | 516 kts | 173° |
| 2026-05-06 09:23 | 34.33344 | 24.38707 | 31140 ft | 516 kts | 173° |
| 2026-05-06 09:24 | 34.26277 | 24.40055 | 31140 ft | 516 kts | 173° |
| 2026-05-06 09:24 | 34.19215 | 24.41399 | 31136 ft | 516 kts | 173° |
| 2026-05-06 09:25 | 34.12155 | 24.42741 | 31123 ft | 515 kts | 173° |
| 2026-05-06 09:25 | 34.05103 | 24.44079 | 31112 ft | 515 kts | 173° |
| 2026-05-06 09:26 | 33.98238 | 24.46472 | 31113 ft | 520 kts | 159° |
| 2026-05-06 09:26 | 33.91781 | 24.50355 | 31111 ft | 522 kts | 153° |
| 2026-05-06 09:27 | 33.85456 | 24.54595 | 31110 ft | 522 kts | 152° |
| 2026-05-06 09:27 | 33.79133 | 24.58827 | 31110 ft | 522 kts | 153° |
| 2026-05-06 09:28 | 33.72787 | 24.63024 | 31110 ft | 523 kts | 153° |
| 2026-05-06 09:28 | 33.66420 | 24.67191 | 31110 ft | 523 kts | 154° |
| 2026-05-06 09:29 | 33.60039 | 24.71315 | 31110 ft | 523 kts | 154° |
| 2026-05-06 09:29 | 33.53667 | 24.75463 | 31111 ft | 524 kts | 154° |
| 2026-05-06 09:30 | 33.47288 | 24.79632 | 31110 ft | 525 kts | 153° |
| 2026-05-06 09:30 | 33.40908 | 24.83800 | 31110 ft | 524 kts | 153° |
| 2026-05-06 09:31 | 33.34532 | 24.87958 | 31110 ft | 524 kts | 153° |
| 2026-05-06 09:31 | 33.28155 | 24.92109 | 31110 ft | 524 kts | 153° |
| 2026-05-06 09:32 | 33.21761 | 24.96263 | 31111 ft | 526 kts | 153° |
| 2026-05-06 09:32 | 33.15360 | 25.00416 | 31114 ft | 525 kts | 153° |
| 2026-05-06 09:33 | 33.08964 | 25.04558 | 31120 ft | 525 kts | 154° |
| 2026-05-06 09:33 | 33.02575 | 25.08689 | 31130 ft | 524 kts | 154° |
| 2026-05-06 09:34 | 32.96186 | 25.12813 | 31138 ft | 525 kts | 154° |
| 2026-05-06 09:34 | 32.89789 | 25.16934 | 31140 ft | 525 kts | 154° |
| 2026-05-06 09:35 | 32.83390 | 25.21052 | 31140 ft | 525 kts | 154° |
| 2026-05-06 09:35 | 32.76997 | 25.25159 | 31140 ft | 524 kts | 154° |
| 2026-05-06 09:36 | 32.70605 | 25.29258 | 31140 ft | 524 kts | 154° |
| 2026-05-06 09:36 | 32.64210 | 25.33351 | 31140 ft | 524 kts | 154° |
| 2026-05-06 09:37 | 32.57811 | 25.37440 | 31140 ft | 525 kts | 154° |
| 2026-05-06 09:37 | 32.51410 | 25.41524 | 31140 ft | 524 kts | 154° |
| 2026-05-06 09:38 | 32.45008 | 25.45603 | 31140 ft | 524 kts | 154° |
| 2026-05-06 09:38 | 32.38606 | 25.49674 | 31139 ft | 524 kts | 154° |
| 2026-05-06 09:39 | 32.32199 | 25.53742 | 31140 ft | 525 kts | 154° |
| 2026-05-06 09:39 | 32.25786 | 25.57807 | 31140 ft | 525 kts | 154° |
| 2026-05-06 09:40 | 32.19371 | 25.61867 | 31140 ft | 525 kts | 154° |
| 2026-05-06 09:40 | 32.09732 | 25.67923 | 31139 ft | 525 kts | 155° |
| 2026-05-06 09:41 | 32.03301 | 25.71921 | 31140 ft | 525 kts | 154° |
| 2026-05-06 09:41 | 31.96881 | 25.75943 | 31140 ft | 525 kts | 154° |
| 2026-05-06 09:42 | 31.90465 | 25.79973 | 31140 ft | 525 kts | 154° |
| 2026-05-06 09:42 | 31.84048 | 25.84001 | 31140 ft | 524 kts | 154° |
| 2026-05-06 09:43 | 31.77646 | 25.88012 | 31147 ft | 524 kts | 154° |
| 2026-05-06 09:43 | 31.71216 | 25.92034 | 31158 ft | 524 kts | 154° |
| 2026-05-06 09:44 | 31.64805 | 25.96037 | 31168 ft | 525 kts | 154° |
| 2026-05-06 09:44 | 31.58399 | 26.00073 | 31169 ft | 525 kts | 152° |
| 2026-05-06 09:45 | 31.52256 | 26.04668 | 31170 ft | 527 kts | 148° |
| 2026-05-06 09:45 | 31.46227 | 26.09517 | 31170 ft | 527 kts | 147° |
| 2026-05-06 09:46 | 31.40194 | 26.14358 | 31169 ft | 527 kts | 148° |
| 2026-05-06 09:46 | 31.34189 | 26.19135 | 31169 ft | 526 kts | 148° |
| 2026-05-06 09:47 | 31.28134 | 26.23931 | 31169 ft | 527 kts | 148° |
| 2026-05-06 09:47 | 31.22078 | 26.28718 | 31170 ft | 528 kts | 148° |
| 2026-05-06 09:48 | 31.16022 | 26.33499 | 31169 ft | 526 kts | 148° |
| 2026-05-06 09:48 | 31.09961 | 26.38277 | 31169 ft | 526 kts | 148° |
| 2026-05-06 09:49 | 31.03923 | 26.43029 | 31170 ft | 528 kts | 148° |
| 2026-05-06 09:49 | 30.97854 | 26.47798 | 31170 ft | 528 kts | 148° |
| 2026-05-06 09:50 | 30.91786 | 26.52560 | 31169 ft | 527 kts | 148° |
| 2026-05-06 09:50 | 30.85730 | 26.57305 | 31169 ft | 527 kts | 148° |
| 2026-05-06 09:51 | 30.79671 | 26.62044 | 31169 ft | 527 kts | 148° |
| 2026-05-06 09:51 | 30.73605 | 26.66773 | 31168 ft | 527 kts | 149° |
| 2026-05-06 09:52 | 30.67522 | 26.71455 | 31169 ft | 527 kts | 149° |
| 2026-05-06 09:52 | 30.61454 | 26.76148 | 31170 ft | 528 kts | 149° |
| 2026-05-06 09:53 | 30.55374 | 26.80869 | 31170 ft | 528 kts | 149° |
| 2026-05-06 09:53 | 30.49275 | 26.85605 | 31169 ft | 527 kts | 149° |
| 2026-05-06 09:54 | 30.43230 | 26.90291 | 31169 ft | 526 kts | 149° |
| 2026-05-06 09:54 | 30.37145 | 26.94999 | 31170 ft | 527 kts | 149° |
| 2026-05-06 09:55 | 30.31085 | 26.99680 | 31169 ft | 527 kts | 149° |
| 2026-05-06 09:55 | 30.24992 | 27.04382 | 31169 ft | 527 kts | 149° |
| 2026-05-06 09:56 | 30.18935 | 27.09047 | 31169 ft | 527 kts | 149° |
| 2026-05-06 09:56 | 30.12863 | 27.13717 | 31169 ft | 527 kts | 149° |
| 2026-05-06 09:57 | 30.06760 | 27.18405 | 31169 ft | 527 kts | 149° |
| 2026-05-06 09:57 | 30.00673 | 27.23072 | 31170 ft | 527 kts | 149° |
| 2026-05-06 09:58 | 29.94602 | 27.27720 | 31170 ft | 528 kts | 149° |
| 2026-05-06 09:58 | 29.88502 | 27.32384 | 31169 ft | 528 kts | 149° |
| 2026-05-06 09:59 | 29.82381 | 27.37058 | 31169 ft | 527 kts | 149° |
| 2026-05-06 09:59 | 29.76287 | 27.41704 | 31169 ft | 528 kts | 149° |
| 2026-05-06 10:00 | 29.70200 | 27.46337 | 31169 ft | 528 kts | 149° |
| 2026-05-06 10:00 | 29.64091 | 27.50979 | 31169 ft | 528 kts | 149° |
| 2026-05-06 10:01 | 29.57996 | 27.55605 | 31169 ft | 528 kts | 149° |
| 2026-05-06 10:01 | 29.51892 | 27.60230 | 31169 ft | 528 kts | 149° |
| 2026-05-06 10:02 | 29.45787 | 27.64849 | 31169 ft | 528 kts | 149° |
| 2026-05-06 10:02 | 29.39662 | 27.69432 | 31169 ft | 527 kts | 150° |
| 2026-05-06 10:03 | 29.33534 | 27.74010 | 31169 ft | 528 kts | 150° |
| 2026-05-06 10:03 | 29.27413 | 27.78610 | 31169 ft | 528 kts | 150° |
| 2026-05-06 10:04 | 29.21296 | 27.83211 | 31169 ft | 528 kts | 150° |
| 2026-05-06 10:04 | 29.15178 | 27.87808 | 31170 ft | 528 kts | 150° |
| 2026-05-06 10:05 | 29.09048 | 27.92405 | 31169 ft | 529 kts | 150° |
| 2026-05-06 10:05 | 29.02908 | 27.97004 | 31169 ft | 530 kts | 150° |
| 2026-05-06 10:06 | 28.96762 | 28.01601 | 31169 ft | 530 kts | 150° |
| 2026-05-06 10:06 | 28.90635 | 28.06178 | 31169 ft | 527 kts | 150° |
| 2026-05-06 10:07 | 28.84514 | 28.10753 | 31169 ft | 529 kts | 150° |
| 2026-05-06 10:07 | 28.78387 | 28.15401 | 31169 ft | 531 kts | 150° |
| 2026-05-06 10:08 | 28.72264 | 28.20061 | 31169 ft | 531 kts | 150° |
| 2026-05-06 10:08 | 28.66146 | 28.24706 | 31169 ft | 531 kts | 150° |
| 2026-05-06 10:09 | 28.60018 | 28.29347 | 31170 ft | 532 kts | 150° |
| 2026-05-06 10:09 | 28.53878 | 28.33990 | 31169 ft | 532 kts | 150° |
| 2026-05-06 10:10 | 28.47737 | 28.38628 | 31169 ft | 532 kts | 150° |
| 2026-05-06 10:10 | 28.41593 | 28.43262 | 31169 ft | 532 kts | 150° |
| 2026-05-06 10:11 | 28.35447 | 28.47890 | 31169 ft | 532 kts | 150° |
| 2026-05-06 10:11 | 28.29300 | 28.52512 | 31169 ft | 532 kts | 150° |
| 2026-05-06 10:12 | 28.23154 | 28.57128 | 31169 ft | 531 kts | 150° |
| 2026-05-06 10:12 | 28.17014 | 28.61733 | 31170 ft | 531 kts | 150° |
| 2026-05-06 10:13 | 28.10886 | 28.66316 | 31168 ft | 531 kts | 150° |
| 2026-05-06 10:13 | 28.04728 | 28.70866 | 31169 ft | 530 kts | 150° |
| 2026-05-06 10:14 | 27.98585 | 28.75422 | 31168 ft | 530 kts | 150° |
| 2026-05-06 10:14 | 27.92434 | 28.80003 | 31170 ft | 533 kts | 150° |
| 2026-05-06 10:15 | 27.86257 | 28.84605 | 31169 ft | 533 kts | 150° |
| 2026-05-06 10:15 | 27.80104 | 28.89185 | 31169 ft | 531 kts | 150° |
| 2026-05-06 10:16 | 27.73952 | 28.93754 | 31170 ft | 532 kts | 150° |
| 2026-05-06 10:16 | 27.67793 | 28.98321 | 31169 ft | 531 kts | 150° |
| 2026-05-06 10:17 | 27.61642 | 29.02876 | 31176 ft | 531 kts | 150° |
| 2026-05-06 10:17 | 27.55491 | 29.07426 | 31188 ft | 531 kts | 150° |
| 2026-05-06 10:18 | 27.49340 | 29.11969 | 31197 ft | 530 kts | 150° |
| 2026-05-06 10:18 | 27.43192 | 29.16503 | 31199 ft | 530 kts | 150° |
| 2026-05-06 10:19 | 27.37036 | 29.21037 | 31199 ft | 531 kts | 150° |
| 2026-05-06 10:19 | 27.30872 | 29.25571 | 31199 ft | 531 kts | 150° |
| 2026-05-06 10:20 | 27.24711 | 29.30097 | 31199 ft | 531 kts | 150° |
| 2026-05-06 10:20 | 27.18548 | 29.34618 | 31199 ft | 531 kts | 150° |
| 2026-05-06 10:21 | 27.12374 | 29.39141 | 31199 ft | 532 kts | 150° |
| 2026-05-06 10:21 | 27.06184 | 29.43670 | 31199 ft | 531 kts | 150° |
| 2026-05-06 10:22 | 27.00010 | 29.48181 | 31193 ft | 532 kts | 150° |
| 2026-05-06 10:22 | 26.93815 | 29.52701 | 31172 ft | 534 kts | 150° |
| 2026-05-06 10:23 | 26.87644 | 29.57198 | 31148 ft | 534 kts | 150° |
| 2026-05-06 10:23 | 26.81411 | 29.61735 | 31140 ft | 533 kts | 150° |
| 2026-05-06 10:24 | 26.75221 | 29.66230 | 31139 ft | 534 kts | 151° |
| 2026-05-06 10:24 | 26.69005 | 29.70690 | 31140 ft | 534 kts | 151° |
| 2026-05-06 10:25 | 26.62774 | 29.75178 | 31140 ft | 535 kts | 151° |
| 2026-05-06 10:25 | 26.56539 | 29.79710 | 31142 ft | 537 kts | 150° |
| 2026-05-06 10:26 | 26.50304 | 29.84279 | 31148 ft | 537 kts | 150° |
| 2026-05-06 10:26 | 26.44115 | 29.88812 | 31153 ft | 537 kts | 151° |
| 2026-05-06 10:27 | 26.37854 | 29.93386 | 31159 ft | 537 kts | 151° |
| 2026-05-06 10:27 | 26.31622 | 29.97931 | 31166 ft | 537 kts | 151° |
| 2026-05-06 10:28 | 26.25430 | 30.02440 | 31169 ft | 537 kts | 151° |
| 2026-05-06 10:28 | 26.19129 | 30.06938 | 31169 ft | 537 kts | 152° |
| 2026-05-06 10:29 | 26.12871 | 30.11356 | 31170 ft | 538 kts | 152° |
| 2026-05-06 10:29 | 26.06570 | 30.15802 | 31169 ft | 538 kts | 151° |
| 2026-05-06 10:30 | 26.00290 | 30.20234 | 31169 ft | 537 kts | 151° |
| 2026-05-06 10:30 | 25.93973 | 30.24686 | 31170 ft | 537 kts | 151° |
| 2026-05-06 10:31 | 25.87721 | 30.29087 | 31151 ft | 537 kts | 152° |
| 2026-05-06 10:31 | 25.81324 | 30.33366 | 31095 ft | 532 kts | 158° |
| 2026-05-06 10:32 | 25.74531 | 30.36366 | 31037 ft | 527 kts | 166° |
| 2026-05-06 10:32 | 25.67605 | 30.38788 | 31022 ft | 524 kts | 168° |
| 2026-05-06 10:33 | 25.60639 | 30.41168 | 31022 ft | 525 kts | 167° |
| 2026-05-06 10:33 | 25.53729 | 30.43569 | 31021 ft | 524 kts | 167° |
| 2026-05-06 10:34 | 25.46790 | 30.46002 | 31022 ft | 524 kts | 167° |
| 2026-05-06 10:34 | 25.39879 | 30.48426 | 31022 ft | 523 kts | 167° |
| 2026-05-06 10:35 | 25.32975 | 30.50834 | 31023 ft | 524 kts | 167° |
| 2026-05-06 10:35 | 25.26031 | 30.53250 | 31021 ft | 523 kts | 167° |
| 2026-05-06 10:36 | 25.19137 | 30.55644 | 31022 ft | 523 kts | 167° |
| 2026-05-06 10:36 | 25.12213 | 30.58046 | 31022 ft | 523 kts | 167° |
| 2026-05-06 10:37 | 25.05279 | 30.60450 | 31022 ft | 522 kts | 167° |
| 2026-05-06 10:37 | 24.98403 | 30.62829 | 31022 ft | 523 kts | 167° |
| 2026-05-06 10:38 | 24.91463 | 30.65229 | 31020 ft | 522 kts | 168° |
| 2026-05-06 10:38 | 24.84548 | 30.67580 | 31021 ft | 520 kts | 168° |
| 2026-05-06 10:39 | 24.77706 | 30.69911 | 31022 ft | 521 kts | 168° |
| 2026-05-06 10:39 | 24.70765 | 30.72294 | 31022 ft | 522 kts | 168° |
| 2026-05-06 10:40 | 24.63898 | 30.74658 | 31021 ft | 522 kts | 168° |
| 2026-05-06 10:40 | 24.56967 | 30.77042 | 31022 ft | 521 kts | 168° |
| 2026-05-06 10:41 | 24.50098 | 30.79400 | 31022 ft | 522 kts | 168° |
| 2026-05-06 10:41 | 24.43185 | 30.81771 | 31022 ft | 522 kts | 168° |
| 2026-05-06 10:42 | 24.36286 | 30.84135 | 31022 ft | 522 kts | 168° |
| 2026-05-06 10:42 | 24.29399 | 30.86491 | 31022 ft | 522 kts | 168° |
| 2026-05-06 10:43 | 24.22466 | 30.88860 | 31022 ft | 522 kts | 168° |
| 2026-05-06 10:44 | 24.12129 | 30.92388 | 31022 ft | 522 kts | 168° |
| 2026-05-06 10:44 | 24.05185 | 30.94755 | 31022 ft | 522 kts | 168° |
| 2026-05-06 10:45 | 23.98275 | 30.97107 | 31023 ft | 522 kts | 168° |
| 2026-05-06 10:45 | 23.91429 | 30.99436 | 31021 ft | 519 kts | 168° |
| 2026-05-06 10:46 | 23.84535 | 31.01777 | 31022 ft | 520 kts | 168° |
| 2026-05-06 10:46 | 23.77659 | 31.04109 | 31022 ft | 521 kts | 168° |
| 2026-05-06 10:47 | 23.70785 | 31.06440 | 31021 ft | 519 kts | 168° |
| 2026-05-06 10:47 | 23.63886 | 31.08775 | 31022 ft | 519 kts | 168° |
| 2026-05-06 10:48 | 23.57006 | 31.11101 | 31022 ft | 520 kts | 168° |
| 2026-05-06 10:48 | 23.50167 | 31.13412 | 31022 ft | 519 kts | 168° |
| 2026-05-06 10:49 | 23.43296 | 31.15730 | 31022 ft | 519 kts | 168° |
| 2026-05-06 10:49 | 23.36420 | 31.18047 | 31022 ft | 519 kts | 168° |
| 2026-05-06 10:50 | 23.29559 | 31.20357 | 31022 ft | 518 kts | 168° |
| 2026-05-06 10:50 | 23.22694 | 31.22666 | 31022 ft | 519 kts | 168° |
| 2026-05-06 10:51 | 23.15783 | 31.24987 | 31022 ft | 519 kts | 168° |
| 2026-05-06 10:51 | 23.08970 | 31.27274 | 31021 ft | 517 kts | 168° |
| 2026-05-06 10:52 | 23.02120 | 31.29570 | 31022 ft | 518 kts | 168° |
| 2026-05-06 10:52 | 22.95255 | 31.31869 | 31022 ft | 518 kts | 168° |
| 2026-05-06 10:53 | 22.88378 | 31.34171 | 31021 ft | 516 kts | 168° |
| 2026-05-06 10:53 | 22.81575 | 31.36445 | 31023 ft | 517 kts | 168° |
| 2026-05-06 10:54 | 22.74736 | 31.38730 | 31021 ft | 515 kts | 168° |
| 2026-05-06 10:54 | 22.67883 | 31.41016 | 31022 ft | 515 kts | 168° |
| 2026-05-06 10:55 | 22.61089 | 31.43280 | 31021 ft | 515 kts | 168° |
| 2026-05-06 10:55 | 22.54256 | 31.45555 | 31022 ft | 515 kts | 168° |
| 2026-05-06 10:56 | 22.47444 | 31.47821 | 31021 ft | 514 kts | 168° |
| 2026-05-06 10:56 | 22.40640 | 31.50082 | 31022 ft | 514 kts | 168° |
| 2026-05-06 10:57 | 22.33835 | 31.52340 | 31021 ft | 513 kts | 168° |
| 2026-05-06 10:57 | 22.27044 | 31.54592 | 31022 ft | 513 kts | 168° |
| 2026-05-06 10:58 | 22.20245 | 31.56844 | 31022 ft | 513 kts | 168° |
| 2026-05-06 10:58 | 22.13455 | 31.59092 | 31021 ft | 512 kts | 168° |
| 2026-05-06 10:59 | 22.06668 | 31.61335 | 31022 ft | 512 kts | 168° |
| 2026-05-06 10:59 | 21.99874 | 31.63507 | 31022 ft | 509 kts | 171° |
| 2026-05-06 11:00 | 21.93006 | 31.65196 | 31020 ft | 506 kts | 174° |
| 2026-05-06 11:00 | 21.86135 | 31.66699 | 31022 ft | 505 kts | 174° |
| 2026-05-06 11:01 | 21.79269 | 31.68218 | 31022 ft | 506 kts | 174° |
| 2026-05-06 11:01 | 21.72402 | 31.69772 | 31022 ft | 506 kts | 174° |
| 2026-05-06 11:02 | 21.65549 | 31.71332 | 31022 ft | 506 kts | 174° |
| 2026-05-06 11:02 | 21.58692 | 31.72891 | 31022 ft | 507 kts | 174° |
| 2026-05-06 11:03 | 21.51817 | 31.74454 | 31022 ft | 507 kts | 174° |
| 2026-05-06 11:03 | 21.44966 | 31.76010 | 31021 ft | 505 kts | 174° |
| 2026-05-06 11:04 | 21.38076 | 31.77572 | 31022 ft | 506 kts | 174° |
| 2026-05-06 11:04 | 21.31232 | 31.79122 | 31022 ft | 506 kts | 174° |
| 2026-05-06 11:05 | 21.24356 | 31.80679 | 31022 ft | 506 kts | 174° |
| 2026-05-06 11:05 | 21.17493 | 31.82230 | 31022 ft | 506 kts | 174° |
| 2026-05-06 11:06 | 21.10639 | 31.83779 | 31021 ft | 505 kts | 174° |
| 2026-05-06 11:06 | 21.03793 | 31.85324 | 31022 ft | 505 kts | 174° |
| 2026-05-06 11:07 | 20.96941 | 31.86869 | 31021 ft | 505 kts | 174° |
| 2026-05-06 11:07 | 20.90101 | 31.88410 | 31022 ft | 504 kts | 174° |
| 2026-05-06 11:08 | 20.83287 | 31.89944 | 31022 ft | 504 kts | 174° |
| 2026-05-06 11:08 | 20.76460 | 31.91480 | 31021 ft | 503 kts | 174° |
| 2026-05-06 11:09 | 20.69656 | 31.93008 | 31022 ft | 502 kts | 174° |
| 2026-05-06 11:09 | 20.62854 | 31.94534 | 31022 ft | 501 kts | 174° |
| 2026-05-06 11:10 | 20.56063 | 31.96057 | 31022 ft | 501 kts | 174° |
| 2026-05-06 11:10 | 20.49257 | 31.97582 | 31022 ft | 500 kts | 174° |
| 2026-05-06 11:11 | 20.42505 | 31.99093 | 31025 ft | 499 kts | 174° |
| 2026-05-06 11:11 | 20.35708 | 32.00613 | 31034 ft | 498 kts | 174° |
| 2026-05-06 11:12 | 20.28956 | 32.02122 | 31038 ft | 497 kts | 174° |
| 2026-05-06 11:12 | 20.22209 | 32.03627 | 31038 ft | 498 kts | 174° |
| 2026-05-06 11:13 | 20.15486 | 32.05126 | 31036 ft | 498 kts | 174° |
| 2026-05-06 11:13 | 20.08720 | 32.06634 | 31034 ft | 498 kts | 174° |
| 2026-05-06 11:14 | 20.01985 | 32.08134 | 31032 ft | 498 kts | 174° |
| 2026-05-06 11:14 | 19.95218 | 32.09639 | 31030 ft | 498 kts | 174° |
| 2026-05-06 11:15 | 19.88483 | 32.11136 | 31029 ft | 498 kts | 174° |
| 2026-05-06 11:15 | 19.81738 | 32.12633 | 31027 ft | 498 kts | 174° |
| 2026-05-06 11:16 | 19.74979 | 32.14133 | 31025 ft | 498 kts | 174° |
| 2026-05-06 11:16 | 19.68218 | 32.15631 | 31023 ft | 498 kts | 174° |
| 2026-05-06 11:17 | 19.61476 | 32.17125 | 31021 ft | 497 kts | 174° |
| 2026-05-06 11:17 | 19.54751 | 32.18613 | 31022 ft | 497 kts | 174° |
| 2026-05-06 11:18 | 19.47953 | 32.20115 | 31022 ft | 497 kts | 173° |
| 2026-05-06 11:18 | 19.41229 | 32.21600 | 31022 ft | 498 kts | 173° |
| 2026-05-06 11:19 | 19.34484 | 32.23089 | 31021 ft | 497 kts | 173° |
| 2026-05-06 11:19 | 19.27751 | 32.24574 | 31021 ft | 496 kts | 173° |
| 2026-05-06 11:20 | 19.21023 | 32.26057 | 31022 ft | 496 kts | 173° |
| 2026-05-06 11:20 | 19.14280 | 32.27541 | 31022 ft | 496 kts | 173° |
| 2026-05-06 11:21 | 19.07542 | 32.29023 | 31022 ft | 497 kts | 173° |
| 2026-05-06 11:21 | 19.00808 | 32.30503 | 31022 ft | 496 kts | 173° |
| 2026-05-06 11:22 | 18.94078 | 32.31981 | 31022 ft | 496 kts | 173° |
| 2026-05-06 11:22 | 18.87335 | 32.33461 | 31022 ft | 496 kts | 173° |
| 2026-05-06 11:23 | 18.80605 | 32.34936 | 31022 ft | 496 kts | 173° |
| 2026-05-06 11:23 | 18.73901 | 32.36404 | 31022 ft | 496 kts | 173° |
| 2026-05-06 11:24 | 18.67159 | 32.37880 | 31017 ft | 495 kts | 173° |
| 2026-05-06 11:24 | 18.60473 | 32.39342 | 31006 ft | 496 kts | 173° |
| 2026-05-06 11:25 | 18.53706 | 32.40821 | 30994 ft | 496 kts | 173° |
| 2026-05-06 11:25 | 18.46983 | 32.42289 | 30992 ft | 496 kts | 173° |
| 2026-05-06 11:26 | 18.40274 | 32.43753 | 30992 ft | 496 kts | 173° |
| 2026-05-06 11:26 | 18.33514 | 32.45226 | 30992 ft | 496 kts | 173° |
| 2026-05-06 11:27 | 18.26791 | 32.46691 | 30992 ft | 496 kts | 173° |
| 2026-05-06 11:27 | 18.20082 | 32.48151 | 30992 ft | 496 kts | 172° |
| 2026-05-06 11:28 | 18.13340 | 32.49617 | 30992 ft | 496 kts | 172° |
| 2026-05-06 11:28 | 18.06589 | 32.51085 | 30992 ft | 496 kts | 172° |
| 2026-05-06 11:29 | 17.99854 | 32.52547 | 30992 ft | 496 kts | 172° |
| 2026-05-06 11:29 | 17.93122 | 32.54008 | 30992 ft | 496 kts | 172° |
| 2026-05-06 11:30 | 17.86388 | 32.55468 | 30992 ft | 496 kts | 172° |
| 2026-05-06 11:30 | 17.79662 | 32.56924 | 30992 ft | 496 kts | 172° |
| 2026-05-06 11:31 | 17.72929 | 32.58381 | 30992 ft | 496 kts | 172° |
| 2026-05-06 11:31 | 17.66209 | 32.59835 | 30992 ft | 496 kts | 172° |
| 2026-05-06 11:32 | 17.59474 | 32.61290 | 30992 ft | 496 kts | 172° |
| 2026-05-06 11:32 | 17.52740 | 32.62745 | 30992 ft | 496 kts | 172° |
| 2026-05-06 11:33 | 17.46001 | 32.64199 | 30986 ft | 496 kts | 172° |
| 2026-05-06 11:33 | 17.39278 | 32.65643 | 30971 ft | 496 kts | 173° |
| 2026-05-06 11:34 | 17.32513 | 32.67073 | 30995 ft | 496 kts | 173° |
| 2026-05-06 11:34 | 17.25774 | 32.68511 | 31018 ft | 497 kts | 172° |
| 2026-05-06 11:35 | 17.19014 | 32.69959 | 31021 ft | 496 kts | 172° |
| 2026-05-06 11:35 | 17.12276 | 32.71401 | 31022 ft | 497 kts | 172° |
| 2026-05-06 11:36 | 17.05538 | 32.72842 | 31022 ft | 497 kts | 172° |
| 2026-05-06 11:36 | 16.98816 | 32.74278 | 31022 ft | 497 kts | 172° |
| 2026-05-06 11:37 | 16.92048 | 32.75724 | 31022 ft | 497 kts | 172° |
| 2026-05-06 11:37 | 16.85329 | 32.77158 | 31022 ft | 497 kts | 172° |
| 2026-05-06 11:38 | 16.78585 | 32.78596 | 31022 ft | 497 kts | 172° |
| 2026-05-06 11:38 | 16.71842 | 32.80033 | 31022 ft | 497 kts | 172° |
| 2026-05-06 11:39 | 16.65093 | 32.81470 | 31022 ft | 497 kts | 172° |
| 2026-05-06 11:39 | 16.58345 | 32.82906 | 31022 ft | 497 kts | 172° |
| 2026-05-06 11:40 | 16.51591 | 32.84273 | 31022 ft | 496 kts | 174° |
| 2026-05-06 11:40 | 16.44805 | 32.85361 | 31022 ft | 495 kts | 175° |
| 2026-05-06 11:41 | 16.38017 | 32.86398 | 31022 ft | 495 kts | 175° |
| 2026-05-06 11:41 | 16.31231 | 32.87448 | 31026 ft | 494 kts | 175° |
| 2026-05-06 11:42 | 16.24413 | 32.88512 | 31031 ft | 496 kts | 175° |
| 2026-05-06 11:42 | 16.17621 | 32.89574 | 31041 ft | 495 kts | 175° |
| 2026-05-06 11:43 | 16.10854 | 32.90631 | 31048 ft | 496 kts | 175° |
| 2026-05-06 11:43 | 16.04058 | 32.91692 | 31047 ft | 496 kts | 175° |
| 2026-05-06 11:44 | 15.93875 | 32.93280 | 31046 ft | 497 kts | 175° |
| 2026-05-06 11:44 | 15.87055 | 32.94342 | 31044 ft | 497 kts | 175° |
| 2026-05-06 11:45 | 15.80228 | 32.95407 | 31042 ft | 495 kts | 175° |
| 2026-05-06 11:45 | 15.73455 | 32.96460 | 31042 ft | 496 kts | 175° |
| 2026-05-06 11:46 | 15.66634 | 32.97521 | 31040 ft | 496 kts | 174° |
| 2026-05-06 11:46 | 15.59849 | 32.98575 | 31043 ft | 497 kts | 174° |
| 2026-05-06 11:47 | 15.53021 | 32.99636 | 31048 ft | 496 kts | 174° |
| 2026-05-06 11:47 | 15.46217 | 33.00692 | 31051 ft | 497 kts | 174° |
| 2026-05-06 11:48 | 15.39409 | 33.01747 | 31051 ft | 496 kts | 174° |
| 2026-05-06 11:48 | 15.32605 | 33.02802 | 31052 ft | 497 kts | 174° |
| 2026-05-06 11:49 | 15.25799 | 33.03856 | 31051 ft | 496 kts | 174° |
| 2026-05-06 11:49 | 15.18998 | 33.04908 | 31051 ft | 496 kts | 174° |
| 2026-05-06 11:50 | 15.12189 | 33.05962 | 31051 ft | 497 kts | 174° |
| 2026-05-06 11:50 | 15.05379 | 33.07014 | 31051 ft | 497 kts | 174° |
| 2026-05-06 11:51 | 14.98577 | 33.08065 | 31052 ft | 496 kts | 174° |
| 2026-05-06 11:51 | 14.91761 | 33.09117 | 31054 ft | 497 kts | 174° |
| 2026-05-06 11:52 | 14.84970 | 33.10165 | 31054 ft | 497 kts | 174° |
| 2026-05-06 11:52 | 14.78156 | 33.11216 | 31053 ft | 497 kts | 174° |
| 2026-05-06 11:53 | 14.71332 | 33.12267 | 31052 ft | 498 kts | 174° |
| 2026-05-06 11:53 | 14.64509 | 33.13318 | 31051 ft | 497 kts | 174° |
| 2026-05-06 11:54 | 14.57683 | 33.14368 | 31051 ft | 498 kts | 174° |
| 2026-05-06 11:54 | 14.50831 | 33.15422 | 31051 ft | 498 kts | 174° |
| 2026-05-06 11:55 | 14.44043 | 33.16467 | 31051 ft | 498 kts | 174° |
| 2026-05-06 11:55 | 14.37199 | 33.17520 | 31054 ft | 498 kts | 174° |
| 2026-05-06 11:56 | 14.30378 | 33.18568 | 31076 ft | 498 kts | 174° |
| 2026-05-06 11:56 | 14.23556 | 33.19616 | 31101 ft | 498 kts | 174° |
| 2026-05-06 11:57 | 14.16734 | 33.20663 | 31110 ft | 497 kts | 174° |
| 2026-05-06 11:57 | 14.09917 | 33.21709 | 31110 ft | 498 kts | 174° |
| 2026-05-06 11:58 | 14.03081 | 33.22757 | 31102 ft | 499 kts | 174° |
| 2026-05-06 11:58 | 13.96252 | 33.23804 | 31081 ft | 498 kts | 173° |
| 2026-05-06 11:59 | 13.89395 | 33.24853 | 31081 ft | 500 kts | 173° |
| 2026-05-06 11:59 | 13.82540 | 33.25903 | 31080 ft | 499 kts | 173° |
| 2026-05-06 12:00 | 13.75701 | 33.26949 | 31081 ft | 499 kts | 173° |
| 2026-05-06 12:00 | 13.68853 | 33.27996 | 31081 ft | 500 kts | 173° |
| 2026-05-06 12:01 | 13.62005 | 33.29042 | 31081 ft | 499 kts | 173° |
| 2026-05-06 12:01 | 13.55155 | 33.30088 | 31081 ft | 500 kts | 173° |
| 2026-05-06 12:02 | 13.48303 | 33.31134 | 31081 ft | 500 kts | 173° |
| 2026-05-06 12:02 | 13.41447 | 33.32179 | 31081 ft | 500 kts | 173° |
| 2026-05-06 12:03 | 13.34587 | 33.33225 | 31081 ft | 500 kts | 173° |
| 2026-05-06 12:03 | 13.27728 | 33.34270 | 31081 ft | 501 kts | 173° |
| 2026-05-06 12:04 | 13.20883 | 33.35312 | 31089 ft | 500 kts | 173° |
| 2026-05-06 12:04 | 13.13998 | 33.36360 | 31101 ft | 501 kts | 173° |
| 2026-05-06 12:05 | 13.07167 | 33.37398 | 31110 ft | 501 kts | 173° |
| 2026-05-06 12:05 | 13.00251 | 33.38450 | 31110 ft | 501 kts | 173° |
| 2026-05-06 12:06 | 12.93374 | 33.39495 | 31110 ft | 501 kts | 173° |
| 2026-05-06 12:06 | 12.86491 | 33.40540 | 31110 ft | 502 kts | 173° |
| 2026-05-06 12:07 | 12.79614 | 33.41582 | 31110 ft | 502 kts | 173° |
| 2026-05-06 12:07 | 12.72749 | 33.42623 | 31110 ft | 502 kts | 173° |
| 2026-05-06 12:08 | 12.65873 | 33.43666 | 31111 ft | 503 kts | 173° |
| 2026-05-06 12:08 | 12.58983 | 33.44709 | 31110 ft | 502 kts | 173° |
| 2026-05-06 12:09 | 12.52096 | 33.45752 | 31110 ft | 503 kts | 173° |
| 2026-05-06 12:09 | 12.48100 | 33.46357 | 31110 ft | 503 kts | 173° |